Nearby METAR Reports

 

K1A5 - Macon/Franklin, North Carolina, USA
Distance from station: WSW 16mi, 25km
Updated: Thu, 19-Apr-2018 1:15pm EDT
Clear
Clear
 Wind from WNW
Wind: WNW 16 mph , 26 km/h, Gust: 24 mph , 39 km/h
Temperature: 55°F , 13°C
Dew Point: 34°F , 1°C
Humidity: 44%
Barometer: 30.06 inHg , 1017.9 hPa
Clouds: Clear
Visibility: 10 miles , 16 km
2018/04/19 17:15 K1A5 191715Z AUTO 30014G21KT 10SM CLR 13/01 A3006 RMK AO2 T01260006
KAVL - Asheville, North Carolina, USA
Distance from station: ENE 36mi, 59km
Updated: Thu, 19-Apr-2018 12:54pm EDT
Clear
Clear
 Wind from NNW
Wind: NNW 23 mph , 37 km/h, Gust: 37 mph , 59 km/h
Temperature: 54°F , 12°C
Dew Point: 34°F , 1°C
Humidity: 47%
Barometer: 30.02 inHg , 1016.6 hPa
Clouds: Clear
Visibility: 10 miles , 16 km
2018/04/19 16:54 KAVL 191654Z 34020G32KT 10SM CLR 12/01 A3002 RMK AO2 PK WND 34036/1623 SLP149 T01220011
 
KRHP - Andrews, North Carolina, USA
Distance from station: WSW 40mi, 64km
Updated: Thu, 19-Apr-2018 1:15pm EDT
Clear
Clear
 Wind from NE
Wind: NE 15 mph , 24 km/h, Gust: 20 mph , 31 km/h
Temperature: 54°F , 12°C
Dew Point: 36°F , 2°C
Humidity: 51%
Barometer: 30.08 inHg , 1018.6 hPa
Clouds: Clear
Visibility: 10 miles , 16 km
2018/04/19 17:15 KRHP 191715Z AUTO 05013G17KT 10SM CLR 12/02 A3008 RMK AO2 T01220019
KLQK - Pickens, South Carolina, USA
Distance from station: SE 42mi, 68km
Updated: Thu, 19-Apr-2018 1:15pm EDT
Clear
Clear
 Wind from W
Wind: W 16 mph , 26 km/h, Gust: 22 mph , 35 km/h
Temperature: 72°F , 22°C
Dew Point: 34°F , 1°C
Humidity: 25%
Barometer: 29.93 inHg , 1013.5 hPa
Clouds: Clear
Visibility: 10 miles , 16 km
2018/04/19 17:15 KLQK 191715Z AUTO 28014G19KT 10SM CLR 22/01 A2993 RMK AO2 T02220006
 
KCEU - Clemson, South Carolina, USA
Distance from station: SSE 46mi, 75km
Updated: Thu, 19-Apr-2018 12:54pm EDT
Clear
Clear
 Wind from W
Wind: W 14 mph , 22 km/h, Gust: 22 mph , 35 km/h
Temperature: 70°F , 21°C
Dew Point: 36°F , 2°C
Humidity: 29%
Barometer: 29.95 inHg , 1014.2 hPa
Clouds: Clear
Visibility: 10 miles , 16 km
2018/04/19 16:54 KCEU 191654Z AUTO 26012G19KT 10SM CLR 21/02 A2995 RMK AO2 SLP133 T02060017
KTOC - Toccoa, Georgia, USA
Distance from station: S 49mi, 79km
Updated: Thu, 19-Apr-2018 1:15pm EDT
Clear
Clear
 Wind from W
Wind: W 17 mph , 28 km/h, Gust: 23 mph , 37 km/h
Temperature: 70°F , 21°C
Dew Point: 36°F , 2°C
Humidity: 29%
Barometer: 29.99 inHg , 1015.6 hPa
Clouds: Clear
Visibility: 10 miles , 16 km
2018/04/19 17:15 KTOC 191715Z AUTO 26015G20KT 10SM CLR 21/02 A2999 RMK AO2 T02120017